createdAt,value
2017-09-08T00:00:08.354Z,933.67
2017-09-08T00:00:36.526Z,933.69
2017-09-08T00:01:04.724Z,933.68
2017-09-08T00:01:32.788Z,933.67
2017-09-08T00:02:01.120Z,933.71
2017-09-08T00:02:29.215Z,933.66
2017-09-08T00:02:57.380Z,933.69
2017-09-08T00:03:25.585Z,933.7
2017-09-08T00:03:53.757Z,933.7
2017-09-08T00:04:21.861Z,933.72
2017-09-08T00:04:50.002Z,933.73
2017-09-08T00:05:18.178Z,933.72
2017-09-08T00:05:46.384Z,933.7
2017-09-08T00:06:14.600Z,933.75
2017-09-08T00:06:42.596Z,933.75
2017-09-08T00:07:10.810Z,933.74
2017-09-08T00:07:38.782Z,933.74
2017-09-08T00:08:06.978Z,933.76
2017-09-08T00:08:35.185Z,933.78
2017-09-08T00:09:03.252Z,933.79
2017-09-08T00:09:31.404Z,933.8
2017-09-08T00:09:59.592Z,933.8
2017-09-08T00:10:27.830Z,933.79
2017-09-08T00:10:55.979Z,933.79
2017-09-08T00:11:24.049Z,933.81
2017-09-08T00:11:52.235Z,933.8
2017-09-08T00:12:20.253Z,933.83
2017-09-08T00:12:48.459Z,933.85
2017-09-08T00:13:16.580Z,933.81
2017-09-08T00:13:44.662Z,933.8
2017-09-08T00:14:12.736Z,933.82
2017-09-08T00:14:40.807Z,933.78
2017-09-08T00:15:09.074Z,933.79
2017-09-08T00:15:37.314Z,933.79
2017-09-08T00:16:05.381Z,933.79
2017-09-08T00:16:33.473Z,933.8
2017-09-08T00:17:01.683Z,933.77
2017-09-08T00:17:29.760Z,933.81
2017-09-08T00:17:57.859Z,933.81
2017-09-08T00:18:25.947Z,933.78
2017-09-08T00:18:53.948Z,933.77
2017-09-08T00:19:22.029Z,933.82
2017-09-08T00:19:50.188Z,933.78
2017-09-08T00:20:18.299Z,933.81
2017-09-08T00:20:46.372Z,933.8
2017-09-08T00:21:14.440Z,933.79
2017-09-08T00:21:42.582Z,933.8
2017-09-08T00:22:10.688Z,933.83
2017-09-08T00:22:38.854Z,933.8
2017-09-08T00:23:07.077Z,933.8
2017-09-08T00:23:35.161Z,933.79
2017-09-08T00:24:03.367Z,933.84
2017-09-08T00:24:31.451Z,933.82
2017-09-08T00:24:59.405Z,933.82
2017-09-08T00:25:27.562Z,933.8
2017-09-08T00:25:55.558Z,933.82
2017-09-08T00:26:23.675Z,933.84
2017-09-08T00:26:51.910Z,933.82
2017-09-08T00:27:20.130Z,933.81
2017-09-08T00:27:48.296Z,933.8
2017-09-08T00:28:16.404Z,933.77
2017-09-08T00:28:44.470Z,933.79
2017-09-08T00:29:12.531Z,933.78
2017-09-08T00:29:40.494Z,933.78
2017-09-08T00:30:08.582Z,933.78
2017-09-08T00:30:36.633Z,933.76
2017-09-08T00:31:04.851Z,933.78
2017-09-08T00:31:33.024Z,933.8
2017-09-08T00:32:01.102Z,933.79
2017-09-08T00:32:29.189Z,933.82
2017-09-08T00:32:57.260Z,933.8
2017-09-08T00:33:25.355Z,933.8
2017-09-08T00:33:53.444Z,933.87
2017-09-08T00:34:21.516Z,933.85
2017-09-08T00:34:49.777Z,933.83
2017-09-08T00:35:18.024Z,933.88
2017-09-08T00:35:46.305Z,933.9
2017-09-08T00:36:14.437Z,933.91
2017-09-08T00:36:42.434Z,933.92
2017-09-08T00:37:10.529Z,933.92
2017-09-08T00:37:38.707Z,933.92
2017-09-08T00:38:06.685Z,933.94
2017-09-08T00:38:34.875Z,933.94
2017-09-08T00:39:03.074Z,933.94
2017-09-08T00:39:31.154Z,933.94
2017-09-08T00:39:59.323Z,933.96
2017-09-08T00:40:27.684Z,933.95
2017-09-08T00:40:55.828Z,933.98
2017-09-08T00:41:23.948Z,933.99
2017-09-08T00:41:52.032Z,934.01
2017-09-08T00:42:20.077Z,934.01
2017-09-08T00:42:48.036Z,934
2017-09-08T00:43:16.109Z,934.02
2017-09-08T00:43:44.207Z,934.02
2017-09-08T00:44:12.299Z,934.03
2017-09-08T00:44:40.386Z,934
2017-09-08T00:45:08.416Z,934
2017-09-08T00:45:36.586Z,934
2017-09-08T00:46:04.696Z,934.01
2017-09-08T00:46:32.773Z,934.03
2017-09-08T00:47:00.963Z,934.03
2017-09-08T00:47:29.192Z,934
2017-09-08T00:47:57.411Z,934.01
2017-09-08T00:48:25.504Z,934.03
2017-09-08T00:48:53.593Z,933.97
2017-09-08T00:49:21.768Z,934.03
2017-09-08T00:49:49.878Z,933.98
2017-09-08T00:50:17.981Z,934.01
2017-09-08T00:50:46.047Z,934.01
2017-09-08T00:51:14.210Z,933.98
2017-09-08T00:51:42.376Z,934.01
2017-09-08T00:52:10.572Z,934
2017-09-08T00:52:38.736Z,933.99
2017-09-08T00:53:06.905Z,933.98
2017-09-08T00:53:35.028Z,933.99
2017-09-08T00:54:03.198Z,934.02
2017-09-08T00:54:31.352Z,933.95
2017-09-08T00:54:59.454Z,934.03
2017-09-08T00:55:27.670Z,933.99
2017-09-08T00:55:55.955Z,933.98
2017-09-08T00:56:24.136Z,933.99
2017-09-08T00:56:52.211Z,933.99
2017-09-08T00:57:20.264Z,933.99
2017-09-08T00:57:48.445Z,933.97
2017-09-08T00:58:16.507Z,934.01
2017-09-08T00:58:44.665Z,933.97
2017-09-08T00:59:12.808Z,933.96
2017-09-08T00:59:40.876Z,934
2017-09-08T01:00:09.096Z,933.94
2017-09-08T01:00:37.297Z,934
2017-09-08T01:01:05.595Z,933.99
2017-09-08T01:01:33.677Z,933.95
2017-09-08T01:02:01.776Z,933.99
2017-09-08T01:02:29.982Z,933.99
2017-09-08T01:02:58.091Z,933.97
2017-09-08T01:03:26.191Z,933.94
2017-09-08T01:03:54.372Z,933.95
2017-09-08T01:04:22.473Z,933.95
2017-09-08T01:04:50.583Z,933.97
2017-09-08T01:05:18.799Z,933.96
2017-09-08T01:05:47.055Z,933.95
2017-09-08T01:06:15.128Z,933.97
2017-09-08T01:06:43.211Z,933.97
2017-09-08T01:07:11.442Z,933.97
2017-09-08T01:07:39.631Z,933.92
2017-09-08T01:08:07.806Z,933.95
2017-09-08T01:08:35.884Z,933.93
2017-09-08T01:09:03.991Z,933.92
2017-09-08T01:09:32.115Z,933.93
2017-09-08T01:10:00.207Z,933.92
2017-09-08T01:10:28.333Z,933.95
2017-09-08T01:10:56.503Z,933.96
2017-09-08T01:11:24.586Z,933.9
2017-09-08T01:11:52.738Z,933.93
2017-09-08T01:12:20.809Z,933.93
2017-09-08T01:12:48.971Z,933.91
2017-09-08T01:13:17.125Z,933.92
2017-09-08T01:13:45.062Z,933.9
2017-09-08T01:14:13.251Z,933.93
2017-09-08T01:14:41.335Z,933.92
2017-09-08T01:15:09.411Z,933.9
2017-09-08T01:15:37.468Z,933.93
2017-09-08T01:16:05.924Z,933.91
2017-09-08T01:16:34.011Z,933.88
2017-09-08T01:17:02.093Z,933.91
2017-09-08T01:17:30.162Z,933.89
2017-09-08T01:17:58.346Z,933.89
2017-09-08T01:18:26.486Z,933.91
2017-09-08T01:18:54.676Z,933.89
2017-09-08T01:19:22.810Z,933.91
2017-09-08T01:19:50.936Z,933.91
2017-09-08T01:20:19.150Z,933.87
2017-09-08T01:20:47.154Z,933.88
2017-09-08T01:21:15.339Z,933.85
2017-09-08T01:21:43.444Z,933.85
2017-09-08T01:22:11.408Z,933.86
2017-09-08T01:22:39.238Z,933.86
2017-09-08T01:23:07.212Z,933.83
2017-09-08T01:23:35.398Z,933.82
2017-09-08T01:24:03.398Z,933.82
2017-09-08T01:24:31.585Z,933.82
2017-09-08T01:24:59.688Z,933.8
2017-09-08T01:25:27.746Z,933.82
2017-09-08T01:25:55.825Z,933.82
2017-09-08T01:26:23.908Z,933.83
2017-09-08T01:26:51.990Z,933.8
2017-09-08T01:27:20.073Z,933.79
2017-09-08T01:27:48.180Z,933.79
2017-09-08T01:28:16.385Z,933.79
2017-09-08T01:28:44.468Z,933.79
2017-09-08T01:29:12.596Z,933.82
2017-09-08T01:29:40.705Z,933.82
2017-09-08T01:30:08.815Z,933.83
2017-09-08T01:30:36.719Z,933.83
2017-09-08T01:31:04.796Z,933.83
2017-09-08T01:31:33.025Z,933.81
2017-09-08T01:32:01.114Z,933.83
2017-09-08T01:32:29.295Z,933.8
2017-09-08T01:32:57.504Z,933.82
2017-09-08T01:33:25.565Z,933.79
2017-09-08T01:33:53.642Z,933.78
2017-09-08T01:34:21.711Z,933.76
2017-09-08T01:34:49.914Z,933.78
2017-09-08T01:35:18.097Z,933.79
2017-09-08T01:35:46.304Z,933.8
2017-09-08T01:36:14.416Z,933.81
2017-09-08T01:36:42.581Z,933.8
2017-09-08T01:37:10.791Z,933.81
2017-09-08T01:37:38.983Z,933.83
2017-09-08T01:38:06.951Z,933.8
2017-09-08T01:38:34.870Z,933.81
2017-09-08T01:39:03.046Z,933.8
2017-09-08T01:39:31.076Z,933.81
2017-09-08T01:39:59.087Z,933.77
2017-09-08T01:40:27.231Z,933.79
2017-09-08T01:40:55.248Z,933.78
2017-09-08T01:41:23.426Z,933.8
2017-09-08T01:41:51.535Z,933.77
2017-09-08T01:42:19.691Z,933.8
2017-09-08T01:42:47.679Z,933.79
2017-09-08T01:43:15.840Z,933.74
2017-09-08T01:43:43.998Z,933.77
2017-09-08T01:44:12.111Z,933.73
2017-09-08T01:44:40.130Z,933.76
2017-09-08T01:45:08.301Z,933.71
2017-09-08T01:45:36.374Z,933.73
2017-09-08T01:46:04.482Z,933.73
2017-09-08T01:46:32.775Z,933.74
2017-09-08T01:47:00.814Z,933.71
2017-09-08T01:47:28.924Z,933.75
2017-09-08T01:47:57.007Z,933.72
2017-09-08T01:48:25.099Z,933.66
2017-09-08T01:48:53.323Z,933.72
2017-09-08T01:49:21.416Z,933.65
2017-09-08T01:49:49.518Z,933.7
2017-09-08T01:50:17.511Z,933.69
2017-09-08T01:50:45.651Z,933.66
2017-09-08T01:51:13.869Z,933.64
2017-09-08T01:51:41.849Z,933.64
2017-09-08T01:52:09.997Z,933.63
2017-09-08T01:52:38.066Z,933.63
2017-09-08T01:53:06.260Z,933.62
2017-09-08T01:53:34.286Z,933.61
2017-09-08T01:54:02.392Z,933.66
2017-09-08T01:54:30.564Z,933.62
2017-09-08T01:54:58.564Z,933.64
2017-09-08T01:55:26.638Z,933.61
2017-09-08T01:55:54.811Z,933.6
2017-09-08T01:56:23.013Z,933.58
2017-09-08T01:56:51.090Z,933.59
2017-09-08T01:57:19.089Z,933.6
2017-09-08T01:57:47.059Z,933.61
2017-09-08T01:58:15.159Z,933.61
2017-09-08T01:58:43.179Z,933.59
2017-09-08T01:59:11.379Z,933.6
2017-09-08T01:59:39.462Z,933.61
2017-09-08T02:00:07.624Z,933.62
2017-09-08T02:00:35.718Z,933.62
2017-09-08T02:01:03.808Z,933.6
2017-09-08T02:01:32.041Z,933.63
2017-09-08T02:02:00.144Z,933.64
2017-09-08T02:02:28.278Z,933.6
2017-09-08T02:02:56.365Z,933.65
2017-09-08T02:03:24.524Z,933.65
2017-09-08T02:03:52.586Z,933.67
2017-09-08T02:04:20.753Z,933.66
2017-09-08T02:04:48.986Z,933.65
2017-09-08T02:05:17.186Z,933.67
2017-09-08T02:05:45.167Z,933.67
2017-09-08T02:06:13.384Z,933.65
2017-09-08T02:06:41.661Z,933.62
2017-09-08T02:07:09.631Z,933.66
2017-09-08T02:07:37.715Z,933.64
2017-09-08T02:08:05.836Z,933.65
2017-09-08T02:08:33.930Z,933.65
2017-09-08T02:09:02.057Z,933.62
2017-09-08T02:09:30.148Z,933.67
2017-09-08T02:09:58.233Z,933.65
2017-09-08T02:10:26.408Z,933.66
2017-09-08T02:10:54.392Z,933.65
2017-09-08T02:11:22.479Z,933.7
2017-09-08T02:11:50.620Z,933.71
2017-09-08T02:12:18.815Z,933.68
2017-09-08T02:12:47.034Z,933.68
2017-09-08T02:13:15.262Z,933.72
2017-09-08T02:13:43.462Z,933.67
2017-09-08T02:14:11.478Z,933.73
2017-09-08T02:14:39.357Z,933.7
2017-09-08T02:15:07.482Z,933.68
2017-09-08T02:15:35.352Z,933.63
2017-09-08T02:16:03.332Z,933.65
2017-09-08T02:16:31.424Z,933.64
2017-09-08T02:16:59.644Z,933.64
2017-09-08T02:17:27.753Z,933.63
2017-09-08T02:17:55.807Z,933.65
2017-09-08T02:18:23.788Z,933.65
2017-09-08T02:18:51.942Z,933.61
2017-09-08T02:19:20.158Z,933.61
2017-09-08T02:19:48.100Z,933.62
2017-09-08T02:20:16.194Z,933.6
2017-09-08T02:20:44.427Z,933.63
2017-09-08T02:21:12.390Z,933.58
2017-09-08T02:21:40.681Z,933.6
2017-09-08T02:22:08.878Z,933.61
2017-09-08T02:22:36.987Z,933.61
2017-09-08T02:23:05.221Z,933.61
2017-09-08T02:23:33.302Z,933.59
2017-09-08T02:24:01.515Z,933.57
2017-09-08T02:24:29.659Z,933.55
2017-09-08T02:24:57.749Z,933.55
2017-09-08T02:25:25.892Z,933.56
2017-09-08T02:25:53.984Z,933.56
2017-09-08T02:26:22.080Z,933.56
2017-09-08T02:26:50.382Z,933.56
2017-09-08T02:27:18.472Z,933.57
2017-09-08T02:27:46.658Z,933.53
2017-09-08T02:28:14.853Z,933.52
2017-09-08T02:28:42.986Z,933.52
2017-09-08T02:29:11.188Z,933.51
2017-09-08T02:29:39.270Z,933.5
2017-09-08T02:30:07.480Z,933.53
2017-09-08T02:30:35.671Z,933.52
2017-09-08T02:31:03.680Z,933.5
2017-09-08T02:31:31.878Z,933.56
2017-09-08T02:32:00.036Z,933.5
2017-09-08T02:32:28.210Z,933.54
2017-09-08T02:32:56.398Z,933.49
2017-09-08T02:33:24.415Z,933.52
2017-09-08T02:33:52.627Z,933.52
2017-09-08T02:34:20.808Z,933.53
2017-09-08T02:34:49.044Z,933.5
2017-09-08T02:35:17.146Z,933.49
2017-09-08T02:35:45.145Z,933.52
2017-09-08T02:36:13.373Z,933.49
2017-09-08T02:36:41.572Z,933.51
2017-09-08T02:37:09.651Z,933.49
2017-09-08T02:37:37.772Z,933.46
2017-09-08T02:38:05.885Z,933.48
2017-09-08T02:38:34.062Z,933.52
2017-09-08T02:39:02.262Z,933.49
2017-09-08T02:39:30.472Z,933.49
2017-09-08T02:39:58.671Z,933.48
2017-09-08T02:40:26.841Z,933.49
2017-09-08T02:40:55.028Z,933.48
2017-09-08T02:41:23.236Z,933.46
2017-09-08T02:41:51.292Z,933.47
2017-09-08T02:42:19.494Z,933.44
2017-09-08T02:42:47.596Z,933.46
2017-09-08T02:43:15.709Z,933.44
2017-09-08T02:43:43.887Z,933.46
2017-09-08T02:44:12.101Z,933.44
2017-09-08T02:44:40.314Z,933.44
2017-09-08T02:45:08.544Z,933.44
2017-09-08T02:45:36.723Z,933.43
2017-09-08T02:46:04.934Z,933.44
2017-09-08T02:46:33.117Z,933.47
2017-09-08T02:47:01.239Z,933.45
2017-09-08T02:47:29.431Z,933.44
2017-09-08T02:47:57.610Z,933.47
2017-09-08T02:48:25.714Z,933.43
2017-09-08T02:48:53.806Z,933.44
2017-09-08T02:49:21.862Z,933.46
2017-09-08T02:49:49.926Z,933.46
2017-09-08T02:50:18.111Z,933.45
2017-09-08T02:50:46.156Z,933.44
2017-09-08T02:51:14.380Z,933.41
2017-09-08T02:51:42.394Z,933.4
2017-09-08T02:52:10.485Z,933.46
2017-09-08T02:52:38.598Z,933.45
2017-09-08T02:53:06.798Z,933.42
2017-09-08T02:53:34.788Z,933.45
2017-09-08T02:54:02.953Z,933.42
2017-09-08T02:54:30.877Z,933.43
2017-09-08T02:54:59.077Z,933.43
2017-09-08T02:55:27.184Z,933.47
2017-09-08T02:55:55.282Z,933.44
2017-09-08T02:56:23.463Z,933.43
2017-09-08T02:56:51.538Z,933.44
2017-09-08T02:57:19.575Z,933.47
2017-09-08T02:57:47.670Z,933.49
2017-09-08T02:58:15.851Z,933.46
2017-09-08T02:58:44.069Z,933.46
2017-09-08T02:59:12.257Z,933.45
2017-09-08T02:59:40.448Z,933.47
2017-09-08T03:00:08.613Z,933.46
2017-09-08T03:00:36.820Z,933.47
2017-09-08T03:01:04.940Z,933.44
2017-09-08T03:01:33.117Z,933.46
2017-09-08T03:02:01.182Z,933.44
2017-09-08T03:02:29.357Z,933.47
2017-09-08T03:02:57.507Z,933.43
2017-09-08T03:03:25.467Z,933.43
2017-09-08T03:03:53.625Z,933.45
2017-09-08T03:04:21.715Z,933.44
2017-09-08T03:04:49.783Z,933.42
2017-09-08T03:05:17.896Z,933.41
2017-09-08T03:05:46.105Z,933.47
2017-09-08T03:06:14.225Z,933.43
2017-09-08T03:06:42.328Z,933.47
2017-09-08T03:07:10.480Z,933.42
2017-09-08T03:07:38.693Z,933.42
2017-09-08T03:08:06.704Z,933.42
2017-09-08T03:08:34.670Z,933.38
2017-09-08T03:09:02.861Z,933.4
2017-09-08T03:09:30.946Z,933.43
2017-09-08T03:09:59.071Z,933.42
2017-09-08T03:10:27.264Z,933.38
2017-09-08T03:10:55.359Z,933.4
2017-09-08T03:11:23.462Z,933.38
2017-09-08T03:11:51.638Z,933.39
2017-09-08T03:12:19.808Z,933.4
2017-09-08T03:12:47.797Z,933.37
2017-09-08T03:13:15.796Z,933.38
2017-09-08T03:13:44.008Z,933.34
2017-09-08T03:14:12.231Z,933.38
2017-09-08T03:14:40.314Z,933.38
2017-09-08T03:15:08.384Z,933.39
2017-09-08T03:15:36.421Z,933.36
2017-09-08T03:16:04.454Z,933.35
2017-09-08T03:16:32.551Z,933.3
2017-09-08T03:17:00.432Z,933.31
2017-09-08T03:17:28.511Z,933.31
2017-09-08T03:17:56.627Z,933.34
2017-09-08T03:18:24.839Z,933.31
2017-09-08T03:18:53.021Z,933.3
2017-09-08T03:19:21.204Z,933.3
2017-09-08T03:19:49.417Z,933.31
2017-09-08T03:20:17.491Z,933.32
2017-09-08T03:20:45.490Z,933.29
2017-09-08T03:21:13.659Z,933.28
2017-09-08T03:21:41.862Z,933.31
2017-09-08T03:22:09.922Z,933.28
2017-09-08T03:22:38.191Z,933.27
2017-09-08T03:23:06.275Z,933.3
2017-09-08T03:23:34.411Z,933.27
2017-09-08T03:24:02.607Z,933.24
2017-09-08T03:24:30.716Z,933.23
2017-09-08T03:24:58.902Z,933.23
2017-09-08T03:25:26.957Z,933.23
2017-09-08T03:25:55.144Z,933.24
2017-09-08T03:26:23.056Z,933.2
2017-09-08T03:26:51.156Z,933.22
2017-09-08T03:27:19.335Z,933.19
2017-09-08T03:27:47.632Z,933.2
2017-09-08T03:28:15.805Z,933.21
2017-09-08T03:28:43.931Z,933.2
2017-09-08T03:29:12.201Z,933.22
2017-09-08T03:29:40.343Z,933.17
2017-09-08T03:30:08.542Z,933.22
2017-09-08T03:30:36.762Z,933.18
2017-09-08T03:31:04.822Z,933.18
2017-09-08T03:31:33.065Z,933.13
2017-09-08T03:32:01.162Z,933.17
2017-09-08T03:32:29.275Z,933.16
2017-09-08T03:32:57.427Z,933.15
2017-09-08T03:33:25.612Z,933.16
2017-09-08T03:33:53.479Z,933.15
2017-09-08T03:34:21.638Z,933.11
2017-09-08T03:34:49.535Z,933.11
2017-09-08T03:35:17.690Z,933.12
2017-09-08T03:35:45.863Z,933.09
2017-09-08T03:36:13.970Z,933.11
2017-09-08T03:36:41.951Z,933.1
2017-09-08T03:37:10.011Z,933.15
2017-09-08T03:37:38.236Z,933.15
2017-09-08T03:38:06.315Z,933.15
2017-09-08T03:38:34.518Z,933.12
2017-09-08T03:39:02.588Z,933.17
2017-09-08T03:39:30.679Z,933.17
2017-09-08T03:39:58.853Z,933.16
2017-09-08T03:40:27.056Z,933.13
2017-09-08T03:40:55.248Z,933.15
2017-09-08T03:41:23.403Z,933.13
2017-09-08T03:41:51.344Z,933.12
2017-09-08T03:42:19.456Z,933.12
2017-09-08T03:42:47.662Z,933.09
2017-09-08T03:43:15.772Z,933.1
2017-09-08T03:43:43.854Z,933.08
2017-09-08T03:44:12.074Z,933.07
2017-09-08T03:44:40.281Z,933.08
2017-09-08T03:45:08.361Z,933.06
2017-09-08T03:45:36.462Z,933.04
2017-09-08T03:46:04.678Z,933.07
2017-09-08T03:46:32.860Z,933.04
2017-09-08T03:47:00.940Z,933.07
2017-09-08T03:47:28.928Z,933.09
2017-09-08T03:47:57.119Z,933.07
2017-09-08T03:48:25.335Z,933.07
2017-09-08T03:48:53.367Z,933.08
2017-09-08T03:49:21.586Z,933.09
2017-09-08T03:49:49.593Z,933.07
2017-09-08T03:50:17.773Z,933.07
2017-09-08T03:50:45.963Z,933.04
2017-09-08T03:51:14.132Z,933.04
2017-09-08T03:51:42.239Z,933.04
2017-09-08T03:52:10.427Z,933.02
2017-09-08T03:52:38.554Z,932.96
2017-09-08T03:53:06.706Z,932.99
2017-09-08T03:53:34.796Z,932.98
2017-09-08T03:54:02.986Z,933
2017-09-08T03:54:31.139Z,932.95
2017-09-08T03:54:59.256Z,932.93
2017-09-08T03:55:27.413Z,932.96
2017-09-08T03:55:55.540Z,932.96
2017-09-08T03:56:23.610Z,932.94
2017-09-08T03:56:51.759Z,932.94
2017-09-08T03:57:20.004Z,932.91
2017-09-08T03:57:48.171Z,932.9
2017-09-08T03:58:16.468Z,932.9
2017-09-08T03:58:44.632Z,932.89
2017-09-08T03:59:12.832Z,932.91
2017-09-08T03:59:40.929Z,932.86
2017-09-08T04:00:09.139Z,932.83
2017-09-08T04:00:37.295Z,932.86
2017-09-08T04:01:05.469Z,932.85
2017-09-08T04:01:33.648Z,932.81
2017-09-08T04:02:01.853Z,932.85
2017-09-08T04:02:30.033Z,932.81
2017-09-08T04:02:58.225Z,932.82
2017-09-08T04:03:26.462Z,932.8
2017-09-08T04:03:54.643Z,932.81
2017-09-08T04:04:22.829Z,932.79
2017-09-08T04:04:51.015Z,932.79
2017-09-08T04:05:19.124Z,932.82
2017-09-08T04:05:47.267Z,932.77
2017-09-08T04:06:15.347Z,932.77
2017-09-08T04:06:43.378Z,932.75
2017-09-08T04:07:11.454Z,932.77
2017-09-08T04:07:39.532Z,932.78
2017-09-08T04:08:07.705Z,932.79
2017-09-08T04:08:35.835Z,932.75
2017-09-08T04:09:04.011Z,932.78
2017-09-08T04:09:32.188Z,932.75
2017-09-08T04:10:00.267Z,932.77
2017-09-08T04:10:28.441Z,932.81
2017-09-08T04:10:56.524Z,932.81
2017-09-08T04:11:24.597Z,932.79
2017-09-08T04:11:52.722Z,932.76
2017-09-08T04:12:20.728Z,932.76
2017-09-08T04:12:48.711Z,932.72
2017-09-08T04:13:16.977Z,932.74
2017-09-08T04:13:45.057Z,932.74
2017-09-08T04:14:13.134Z,932.73
2017-09-08T04:14:41.270Z,932.71
2017-09-08T04:15:09.520Z,932.7
2017-09-08T04:15:37.697Z,932.72
2017-09-08T04:16:05.744Z,932.66
2017-09-08T04:16:33.942Z,932.73
2017-09-08T04:17:02.025Z,932.69
2017-09-08T04:17:30.219Z,932.65
2017-09-08T04:17:58.211Z,932.65
2017-09-08T04:18:26.367Z,932.67
2017-09-08T04:18:54.585Z,932.65
2017-09-08T04:19:22.620Z,932.66
2017-09-08T04:19:50.590Z,932.65
2017-09-08T04:20:18.665Z,932.66
2017-09-08T04:20:46.852Z,932.63
2017-09-08T04:21:15.020Z,932.66
2017-09-08T04:21:43.137Z,932.63
2017-09-08T04:22:11.216Z,932.63
2017-09-08T04:22:39.273Z,932.6
2017-09-08T04:23:07.413Z,932.63
2017-09-08T04:23:35.631Z,932.61
2017-09-08T04:24:03.593Z,932.63
2017-09-08T04:24:31.766Z,932.62
2017-09-08T04:24:59.929Z,932.64
2017-09-08T04:25:28.129Z,932.63
2017-09-08T04:25:56.204Z,932.63
2017-09-08T04:26:24.367Z,932.63
2017-09-08T04:26:52.487Z,932.64
2017-09-08T04:27:20.604Z,932.62
2017-09-08T04:27:48.768Z,932.64
2017-09-08T04:28:17.066Z,932.61
2017-09-08T04:28:45.156Z,932.65
2017-09-08T04:29:13.369Z,932.61
2017-09-08T04:29:41.455Z,932.62
2017-09-08T04:30:09.532Z,932.65
2017-09-08T04:30:37.715Z,932.62
2017-09-08T04:31:05.653Z,932.59
2017-09-08T04:31:33.864Z,932.6
2017-09-08T04:32:02.018Z,932.58
2017-09-08T04:32:29.995Z,932.59
2017-09-08T04:32:58.203Z,932.58
2017-09-08T04:33:26.473Z,932.6
2017-09-08T04:33:54.649Z,932.58
2017-09-08T04:34:22.757Z,932.57
2017-09-08T04:34:50.842Z,932.58
2017-09-08T04:35:18.912Z,932.6
2017-09-08T04:35:46.995Z,932.63
2017-09-08T04:36:15.161Z,932.61
2017-09-08T04:36:43.245Z,932.57
2017-09-08T04:37:11.452Z,932.57
2017-09-08T04:37:39.444Z,932.57
2017-09-08T04:38:07.654Z,932.59
2017-09-08T04:38:35.969Z,932.56
2017-09-08T04:39:04.175Z,932.6
2017-09-08T04:39:32.240Z,932.62
2017-09-08T04:40:00.360Z,932.58
2017-09-08T04:40:28.564Z,932.59
2017-09-08T04:40:56.731Z,932.55
2017-09-08T04:41:24.710Z,932.56
2017-09-08T04:41:52.891Z,932.55
2017-09-08T04:42:20.979Z,932.54
2017-09-08T04:42:49.160Z,932.54
2017-09-08T04:43:17.316Z,932.52
2017-09-08T04:43:45.487Z,932.51
2017-09-08T04:44:13.680Z,932.52
2017-09-08T04:44:41.874Z,932.5
2017-09-08T04:45:10.039Z,932.49
2017-09-08T04:45:38.135Z,932.5
2017-09-08T04:46:06.202Z,932.48
2017-09-08T04:46:34.085Z,932.5
2017-09-08T04:47:02.308Z,932.48
2017-09-08T04:47:30.291Z,932.5
2017-09-08T04:47:58.361Z,932.5
2017-09-08T04:48:26.454Z,932.51
2017-09-08T04:48:54.751Z,932.49
2017-09-08T04:49:22.894Z,932.52
2017-09-08T04:49:51.072Z,932.46
2017-09-08T04:50:19.105Z,932.48
2017-09-08T04:50:47.280Z,932.51
2017-09-08T04:51:15.420Z,932.51
2017-09-08T04:51:43.595Z,932.46
2017-09-08T04:52:11.488Z,932.45
2017-09-08T04:52:39.684Z,932.47
2017-09-08T04:53:07.900Z,932.45
2017-09-08T04:53:36.065Z,932.43
2017-09-08T04:54:04.133Z,932.44
2017-09-08T04:54:32.279Z,932.44
2017-09-08T04:55:00.242Z,932.44
2017-09-08T04:55:28.468Z,932.38
2017-09-08T04:55:56.660Z,932.42
2017-09-08T04:56:24.731Z,932.38
2017-09-08T04:56:52.918Z,932.41
2017-09-08T04:57:21.094Z,932.4
2017-09-08T04:57:49.084Z,932.43
2017-09-08T04:58:16.948Z,932.38
2017-09-08T04:58:45.218Z,932.41
2017-09-08T04:59:13.242Z,932.36
2017-09-08T04:59:41.296Z,932.36
2017-09-08T05:00:09.457Z,932.36
2017-09-08T05:00:37.665Z,932.33
2017-09-08T05:01:05.690Z,932.35
2017-09-08T05:01:33.761Z,932.33
2017-09-08T05:02:01.859Z,932.33
2017-09-08T05:02:30.046Z,932.35
2017-09-08T05:02:58.192Z,932.35
2017-09-08T05:03:26.394Z,932.32
2017-09-08T05:03:54.593Z,932.32
2017-09-08T05:04:22.768Z,932.34
2017-09-08T05:04:50.796Z,932.32
2017-09-08T05:05:18.834Z,932.3
2017-09-08T05:05:47.023Z,932.28
2017-09-08T05:06:15.252Z,932.3
2017-09-08T05:06:43.444Z,932.29
2017-09-08T05:07:11.557Z,932.29
2017-09-08T05:07:39.719Z,932.27
2017-09-08T05:08:07.798Z,932.26
2017-09-08T05:08:35.855Z,932.26
2017-09-08T05:09:04.012Z,932.25
2017-09-08T05:09:32.114Z,932.26
2017-09-08T05:10:00.289Z,932.26
2017-09-08T05:10:28.405Z,932.27
2017-09-08T05:10:56.379Z,932.25
2017-09-08T05:11:24.384Z,932.27
2017-09-08T05:11:52.582Z,932.3
2017-09-08T05:12:20.760Z,932.28
2017-09-08T05:12:48.712Z,932.27
2017-09-08T05:13:16.727Z,932.28
2017-09-08T05:13:44.819Z,932.28
2017-09-08T05:14:12.995Z,932.29
2017-09-08T05:14:41.185Z,932.26
2017-09-08T05:15:09.376Z,932.32
2017-09-08T05:15:37.438Z,932.25
2017-09-08T05:16:05.461Z,932.25
2017-09-08T05:16:33.623Z,932.25
2017-09-08T05:17:01.699Z,932.26
2017-09-08T05:17:29.698Z,932.26
2017-09-08T05:17:57.865Z,932.21
2017-09-08T05:18:26.023Z,932.23
2017-09-08T05:18:54.216Z,932.22
2017-09-08T05:19:22.193Z,932.21
2017-09-08T05:19:50.261Z,932.2
2017-09-08T05:20:18.480Z,932.26
2017-09-08T05:20:46.639Z,932.22
2017-09-08T05:21:14.849Z,932.21
2017-09-08T05:21:42.934Z,932.19
2017-09-08T05:22:10.999Z,932.18
2017-09-08T05:22:39.116Z,932.19
2017-09-08T05:23:07.351Z,932.14
2017-09-08T05:23:35.435Z,932.15
2017-09-08T05:24:03.561Z,932.14
2017-09-08T05:24:31.816Z,932.15
2017-09-08T05:24:59.995Z,932.11
2017-09-08T05:25:27.957Z,932.09
2017-09-08T05:25:56.049Z,932.12
2017-09-08T05:26:24.231Z,932.09
2017-09-08T05:26:52.339Z,932.08
2017-09-08T05:27:20.494Z,932.07
2017-09-08T05:27:48.531Z,932.07
2017-09-08T05:28:16.705Z,932.05
2017-09-08T05:28:44.885Z,932.05
2017-09-08T05:29:13.169Z,932.06
2017-09-08T05:29:41.256Z,932.06
2017-09-08T05:30:09.467Z,932.04
2017-09-08T05:30:37.572Z,932.05
2017-09-08T05:31:05.748Z,932.06
2017-09-08T05:31:33.859Z,932.1
2017-09-08T05:32:01.953Z,932.06
2017-09-08T05:32:30.175Z,932.08
2017-09-08T05:32:58.368Z,932.1
2017-09-08T05:33:26.560Z,932.06
2017-09-08T05:33:54.665Z,932.05
2017-09-08T05:34:22.940Z,932.04
2017-09-08T05:34:51.028Z,932.04
2017-09-08T05:35:19.203Z,932.03
2017-09-08T05:35:47.353Z,932.04
2017-09-08T05:36:15.458Z,932
2017-09-08T05:36:43.538Z,932.02
2017-09-08T05:37:11.736Z,931.97
2017-09-08T05:37:39.752Z,931.95
2017-09-08T05:38:07.844Z,931.94
2017-09-08T05:38:35.812Z,931.98
2017-09-08T05:39:03.914Z,931.95
2017-09-08T05:39:32.006Z,931.91
2017-09-08T05:40:00.179Z,931.92
2017-09-08T05:40:28.275Z,931.94
2017-09-08T05:40:56.338Z,931.91
2017-09-08T05:41:24.425Z,931.92
2017-09-08T05:41:52.614Z,931.94
2017-09-08T05:42:20.589Z,931.93
2017-09-08T05:42:48.586Z,931.88
2017-09-08T05:43:16.547Z,931.88
2017-09-08T05:43:44.771Z,931.89
2017-09-08T05:44:13.063Z,931.9
2017-09-08T05:44:41.138Z,931.87
2017-09-08T05:45:09.242Z,931.84
2017-09-08T05:45:37.397Z,931.86
2017-09-08T05:46:05.581Z,931.81
2017-09-08T05:46:33.775Z,931.81
2017-09-08T05:47:01.979Z,931.8
2017-09-08T05:47:30.071Z,931.77
2017-09-08T05:47:58.049Z,931.75
2017-09-08T05:48:26.013Z,931.76
2017-09-08T05:48:54.188Z,931.72
2017-09-08T05:49:22.292Z,931.73
2017-09-08T05:49:50.490Z,931.75
2017-09-08T05:50:18.687Z,931.74
2017-09-08T05:50:46.757Z,931.73
2017-09-08T05:51:14.993Z,931.69
2017-09-08T05:51:42.964Z,931.74
2017-09-08T05:52:11.131Z,931.73